Time;durP1;ratioP1;P1;durP2;ratioP2;P2;SDS_P1;SDS_P2;PMS_P1;PMS_P2;Temp;Humidity;BMP_temperature;BMP_pressure;BME280_temperature;BME280_humidity;BME280_pressure;Samples;Min_cycle;Max_cycle;Signal;HPM_P1;HPM_P2
2022/01/14 13:59:46;;;;;;;3.12;1.55;;;;;;;3.82;100.00;143205.08;1856746;77;22235;-63
2022/01/14 14:02:27;;;;;;;4.12;1.42;;;;;;;3.79;100.00;143197.59;1829231;78;21116;-63
2022/01/14 14:04:55;;;;;;;3.62;1.37;;;;;;;3.86;100.00;143215.02;1829101;78;21367;-63
2022/01/14 14:07:23;;;;;;;2.35;1.25;;;;;;;3.92;100.00;143228.78;1829455;78;21031;-63
2022/01/14 14:10:20;;;;;;;2.08;1.12;;;;;;;4.01;100.00;143249.97;1802318;78;21090;-63
2022/01/14 14:12:48;;;;;;;3.52;1.45;;;;;;;4.07;100.00;143266.19;1826938;78;21113;-63
2022/01/14 14:18:10;;;;;;;4.15;1.35;;;;;;;4.20;100.00;143296.09;1827671;78;21665;-63
2022/01/14 14:20:38;;;;;;;2.87;1.10;;;;;;;4.28;100.00;143316.09;1795294;79;21000;-63
2022/01/14 14:23:21;;;;;;;3.37;1.05;;;;;;;4.34;100.00;143331.05;1794973;79;21106;-64
2022/01/14 14:25:48;;;;;;;2.70;1.30;;;;;;;4.38;100.00;143341.05;1795208;79;21074;-64
2022/01/14 14:28:17;;;;;;;2.05;1.10;;;;;;;4.38;100.00;143341.05;1795227;78;20969;-64
2022/01/14 14:30:49;;;;;;;3.20;1.22;;;;;;;4.39;100.00;143343.53;1827507;78;21086;-64
2022/01/14 14:33:17;;;;;;;;;;;;;;;4.40;100.00;143344.77;1831927;78;21018;-64
2022/01/14 14:35:46;;;;;;;3.75;1.87;;;;;;;4.45;100.00;143357.25;1828127;78;20104;-63
2022/01/14 14:38:19;;;;;;;1.55;1.00;;;;;;;4.45;100.00;143358.53;1829408;78;21120;-61
2022/01/14 14:40:51;;;;;;;1.72;0.93;;;;;;;4.46;100.00;143361.00;1797833;78;21612;-64
2022/01/14 14:43:20;;;;;;;1.77;1.00;;;;;;;4.46;100.00;143361.00;1795172;80;20984;-62
2022/01/14 14:45:48;;;;;;;2.50;1.05;;;;;;;4.48;99.98;143366.00;1795288;80;21031;-62
2022/01/14 14:48:16;;;;;;;2.52;1.30;;;;;;;4.51;99.86;143373.48;1813770;78;21058;-62
2022/01/14 14:50:43;;;;;;;2.87;1.22;;;;;;;4.56;99.91;143384.72;1815323;78;21050;-62
2022/01/14 14:53:09;;;;;;;4.22;1.45;;;;;;;4.55;99.62;143383.48;1827140;78;21133;-64
2022/01/14 14:55:36;;;;;;;3.60;1.35;;;;;;;4.53;100.00;143377.25;1828929;78;21078;-62
2022/01/14 14:58:03;;;;;;;4.33;1.40;;;;;;;4.49;100.00;143367.25;1827185;78;21596;-63
2022/01/14 15:00:31;;;;;;;3.92;1.52;;;;;;;4.44;100.00;143354.77;1805682;79;21059;-63
2022/01/14 15:02:59;;;;;;;2.72;1.37;;;;;;;4.42;100.00;143351.00;1785091;79;21040;-62
2022/01/14 15:05:26;;;;;;;2.52;1.20;;;;;;;4.38;99.54;143341.05;1808753;79;21059;-63
2022/01/14 15:07:54;;;;;;;3.62;1.30;;;;;;;4.34;97.91;143331.05;1745758;80;21573;-64
2022/01/14 15:10:24;;;;;;;2.55;1.40;;;;;;;4.31;97.52;143323.58;1777402;81;21497;-64
2022/01/14 15:12:52;;;;;;;3.00;1.45;;;;;;;4.26;97.85;143311.09;1735532;82;21037;-67
2022/01/14 15:15:33;;;;;;;3.87;1.50;;;;;;;4.16;97.70;143287.39;1747568;81;21095;-63
2022/01/14 15:20:38;;;;;;;3.50;1.25;;;;;;;4.02;95.12;143253.72;1747995;82;21012;-62
2022/01/14 15:23:06;;;;;;;8.03;1.65;;;;;;;4.05;93.16;143261.19;1708039;84;21021;-64
2022/01/14 15:25:35;;;;;;;4.78;1.40;;;;;;;4.06;92.57;143263.67;1732313;83;20980;-63
2022/01/14 15:28:05;;;;;;;4.53;1.67;;;;;;;4.03;91.63;143256.20;1753794;81;21074;-63
2022/01/14 15:30:34;;;;;;;3.75;1.40;;;;;;;4.00;90.75;143247.48;1761451;81;21012;-65
2022/01/14 15:33:01;;;;;;;5.60;1.40;;;;;;;3.99;89.81;143244.97;1757211;81;21024;-62
2022/01/14 15:35:28;;;;;;;4.90;1.90;;;;;;;3.99;88.33;143244.97;1750130;82;21063;-64
2022/01/14 15:37:58;;;;;;;4.55;1.40;;;;;;;4.00;87.83;143247.48;1749933;82;21506;-65
2022/01/14 15:40:26;;;;;;;6.80;1.37;;;;;;;3.95;87.16;143236.25;1763046;81;21494;-65
2022/01/14 15:42:54;;;;;;;3.65;1.40;;;;;;;3.93;86.78;143231.25;1760242;81;21095;-62
2022/01/14 15:45:21;;;;;;;3.58;1.37;;;;;;;3.92;86.66;143228.78;1817516;79;21027;-64
2022/01/14 15:47:48;;;;;;;3.40;1.77;;;;;;;3.94;86.15;143232.48;1817491;79;21071;-63
2022/01/14 15:50:16;;;;;;;3.08;1.55;;;;;;;3.92;85.54;143228.78;1817581;79;21078;-64
2022/01/14 15:52:43;;;;;;;4.08;1.52;;;;;;;3.89;85.57;143222.53;1816969;79;21011;-65
2022/01/14 15:55:11;;;;;;;3.45;1.55;;;;;;;3.85;85.75;143211.31;1816544;79;21043;-67
2022/01/14 15:57:38;;;;;;;4.42;1.60;;;;;;;3.83;86.29;143206.31;1813126;79;21560;-66
2022/01/14 16:00:10;;;;;;;3.72;1.57;;;;;;;3.83;86.59;143206.31;1804137;79;21533;-65
2022/01/14 16:02:38;;;;;;;3.40;1.72;;;;;;;3.81;86.75;143201.31;1796940;79;20961;-64
2022/01/14 16:05:05;;;;;;;3.90;1.70;;;;;;;3.76;87.06;143188.84;1813321;79;21047;-64
2022/01/14 16:07:34;;;;;;;3.45;1.57;;;;;;;3.73;87.17;143181.38;1798828;79;21526;-63
2022/01/14 16:10:01;;;;;;;4.20;1.87;;;;;;;3.70;87.32;143176.38;1804862;79;21031;-67
2022/01/14 16:12:36;;;;;;;5.33;2.08;;;;;;;3.78;87.10;143195.08;1803564;79;21085;-60
2022/01/14 16:15:00;;;;;;;5.67;2.30;;;;;;;3.75;86.00;143187.59;1800879;79;21055;-62
2022/01/14 16:17:28;;;;;;;3.77;1.75;;;;;;;3.70;85.59;143176.38;1799777;79;21052;-64
2022/01/14 16:19:55;;;;;;;4.60;1.98;;;;;;;3.65;85.20;143163.91;1809085;79;21023;-65
2022/01/14 16:22:21;;;;;;;5.95;2.00;;;;;;;3.60;84.39;143150.19;1797584;79;21874;-61
2022/01/14 16:24:48;;;;;;;4.95;1.85;;;;;;;3.58;84.13;143145.19;1779318;79;21086;-63
2022/01/14 16:27:14;;;;;;;5.20;1.92;;;;;;;3.57;83.99;143142.72;1814207;79;21070;-67
2022/01/14 16:29:49;;;;;;;5.03;2.30;;;;;;;3.61;83.96;143152.67;1812367;79;21518;-67
2022/01/14 16:32:17;;;;;;;3.58;1.60;;;;;;;3.62;83.67;143156.44;1799927;79;21076;-64
2022/01/14 16:34:45;;;;;;;5.20;2.05;;;;;;;3.54;83.10;143136.48;1799418;79;21033;-68
2022/01/14 16:37:14;;;;;;;5.20;2.02;;;;;;;3.50;82.62;143126.50;1785214;80;21080;-66
2022/01/14 16:39:43;;;;;;;3.83;1.72;;;;;;;3.49;81.16;143124.02;1808287;79;21039;-66
2022/01/14 16:42:11;;;;;;;4.37;1.62;;;;;;;3.49;79.58;143124.02;1804706;79;21019;-71
2022/01/14 16:44:45;;;;;;;4.25;1.70;;;;;;;3.49;79.16;143124.02;1770101;80;21047;-69
2022/01/14 16:47:11;;;;;;;6.05;1.92;;;;;;;3.51;78.58;143127.73;1766680;81;20992;-63
2022/01/14 16:49:38;;;;;;;3.83;1.70;;;;;;;3.50;77.79;143126.50;1764547;80;21541;-66
2022/01/14 16:52:08;;;;;;;4.28;1.65;;;;;;;3.54;75.86;143135.25;1766076;80;21063;-65
2022/01/14 16:54:35;;;;;;;2.75;1.30;;;;;;;3.59;73.83;143147.72;1768889;81;21084;-66
2022/01/14 16:57:04;;;;;;;4.37;1.55;;;;;;;3.62;73.37;143155.19;1735927;82;21098;-66
2022/01/14 16:59:30;;;;;;;4.00;1.60;;;;;;;3.64;71.30;143160.19;1763998;80;21070;-67
2022/01/14 17:01:58;;;;;;;9.33;1.87;;;;;;;3.68;72.67;143171.37;1740500;82;21124;-70
2022/01/14 17:04:25;;;;;;;6.60;2.27;;;;;;;3.59;74.48;143148.95;1819458;78;21054;-65
2022/01/14 17:06:52;;;;;;;7.47;2.12;;;;;;;3.43;76.26;143109.03;1819957;78;21043;-66
2022/01/14 17:09:19;;;;;;;3.85;1.90;;;;;;;3.22;79.22;143059.17;1811941;78;21118;-62
2022/01/14 17:11:47;;;;;;;4.40;1.27;;;;;;;3.03;81.13;143011.83;1825962;78;21023;-63
2022/01/14 17:14:15;;;;;;;6.17;1.65;;;;;;;2.82;83.13;142961.98;1814430;78;21040;-67
2022/01/14 17:16:43;;;;;;;3.25;1.30;;;;;;;2.66;85.20;142922.09;1815593;78;21014;-67
2022/01/14 17:19:10;;;;;;;4.87;1.57;;;;;;;2.49;86.67;142880.97;1814422;78;21077;-68
2022/01/14 17:21:36;;;;;;;3.42;1.42;;;;;;;2.34;86.60;142844.87;1812254;78;21183;-71
2022/01/14 17:24:05;;;;;;;3.85;1.65;;;;;;;2.19;86.42;142807.52;1809754;78;21062;-65
2022/01/14 17:26:32;;;;;;;3.27;1.50;;;;;;;2.13;85.48;142793.78;1804572;78;22174;-65
2022/01/14 17:28:58;;;;;;;4.35;1.70;;;;;;;2.14;83.45;142795.06;1813174;78;21062;-63
2022/01/14 17:31:25;;;;;;;3.50;1.37;;;;;;;2.18;81.89;142805.00;1817110;78;20987;-68
2022/01/14 17:33:52;;;;;;;4.22;1.57;;;;;;;2.25;80.86;142822.44;1804088;78;21702;-66
2022/01/14 17:36:21;;;;;;;3.92;1.40;;;;;;;2.33;80.46;142841.13;1780822;79;21509;-68
2022/01/14 17:38:49;;;;;;;3.52;1.20;;;;;;;2.39;81.85;142856.05;1765330;80;21624;-67
2022/01/14 17:41:18;;;;;;;4.25;1.47;;;;;;;2.23;83.84;142817.45;1778129;79;21043;-70
2022/01/14 17:43:46;;;;;;;3.40;1.60;;;;;;;2.07;85.70;142778.86;1751788;80;21047;-63
2022/01/14 17:46:17;;;;;;;6.47;1.90;;;;;;;1.97;86.36;142752.72;1783864;79;20995;-63
2022/01/14 17:53:09;;;;;;;4.80;1.62;;;;;;;1.73;92.71;142695.41;1622057;83;5229529;-66
2022/01/14 17:55:36;;;;;;;4.00;1.77;;;;;;;1.32;97.89;142594.61;1663524;85;21111;-66
2022/01/14 17:58:03;;;;;;;7.33;1.80;;;;;;;1.18;99.11;142561.03;1661102;85;21093;-66
2022/01/14 18:00:30;;;;;;;5.47;2.17;;;;;;;1.06;99.57;142532.39;1669133;85;21602;-65
2022/01/14 18:02:57;;;;;;;5.92;2.15;;;;;;;1.01;100.00;142521.19;1672706;85;21111;-66
2022/01/14 18:05:23;;;;;;;4.67;2.05;;;;;;;0.98;99.52;142513.73;1748156;81;21023;-65
2022/01/14 18:07:50;;;;;;;5.80;1.92;;;;;;;1.06;98.81;142532.39;1747823;81;21118;-64
2022/01/14 18:10:18;;;;;;;2.98;1.27;;;;;;;1.11;96.40;142543.59;1749055;81;21016;-66
2022/01/14 18:15:14;;;;;;;2.52;0.88;;;;;;;1.13;92.70;142548.59;1748743;81;21101;-68
2022/01/14 18:17:41;;;;;;;3.25;1.20;;;;;;;1.10;91.29;142541.12;1745070;81;21031;-63
2022/01/14 18:20:09;;;;;;;2.50;1.20;;;;;;;1.09;90.71;142539.84;1748078;81;21530;-66
2022/01/14 18:22:37;;;;;;;3.27;1.20;;;;;;;1.07;90.04;142536.16;1744554;81;21067;-67
2022/01/14 18:25:05;;;;;;;4.33;1.52;;;;;;;1.04;88.78;142528.69;1746521;81;21048;-68
2022/01/14 18:27:32;;;;;;;2.20;1.22;;;;;;;1.04;88.45;142528.69;1738036;81;21038;-63
2022/01/14 18:29:59;;;;;;;7.92;1.57;;;;;;;1.03;86.51;142524.94;1737449;81;21027;-72
2022/01/14 18:32:26;;;;;;;4.62;1.37;;;;;;;1.06;86.39;142533.63;1742853;82;21084;-66
2022/01/14 18:34:53;;;;;;;3.08;1.22;;;;;;;1.03;86.19;142526.17;1742725;82;21126;-65
2022/01/14 18:37:19;;;;;;;4.65;1.10;;;;;;;1.19;84.72;142564.73;1742460;81;21098;-64
2022/01/14 18:39:47;;;;;;;3.40;1.40;;;;;;;1.16;84.11;142556.05;1742718;82;21068;-67
2022/01/14 18:42:16;;;;;;;3.95;1.60;;;;;;;1.14;82.36;142551.06;1743963;81;21018;-63
2022/01/14 18:44:42;;;;;;;7.40;1.32;;;;;;;1.13;82.15;142549.81;1698170;82;21083;-64
2022/01/14 18:47:09;;;;;;;5.40;1.25;;;;;;;1.11;81.75;142543.59;1749949;81;20999;-66
2022/01/14 18:49:36;;;;;;;4.08;1.40;;;;;;;1.08;81.76;142538.62;1749230;81;21189;-67
2022/01/14 18:52:04;;;;;;;4.50;1.32;;;;;;;1.11;80.90;142543.59;1743551;81;21063;-66
2022/01/14 18:54:34;;;;;;;3.25;1.22;;;;;;;1.11;80.47;142544.84;1745373;81;21055;-66
2022/01/14 18:57:06;;;;;;;4.72;1.67;;;;;;;1.13;79.80;142548.59;1749274;80;21636;-64
2022/01/14 18:59:34;;;;;;;4.90;1.55;;;;;;;1.15;79.50;142553.58;1736518;81;22280;-64
2022/01/14 19:02:01;;;;;;;7.03;1.50;;;;;;;1.16;79.16;142557.28;1739259;81;21587;-65
2022/01/14 19:04:27;;;;;;;5.17;1.40;;;;;;;1.15;79.28;142554.81;1744965;81;21102;-66
2022/01/14 19:06:54;;;;;;;4.47;1.67;;;;;;;1.17;79.04;142558.52;1750495;80;21039;-65
2022/01/14 19:09:21;;;;;;;5.40;1.40;;;;;;;1.15;79.25;142553.58;1747594;81;21087;-65
2022/01/14 19:11:48;;;;;;;4.28;1.60;;;;;;;1.13;78.99;142549.81;1747750;81;21070;-63
2022/01/14 19:14:15;;;;;;;2.90;1.30;;;;;;;1.12;78.71;142546.08;1739625;80;21343;-67
2022/01/14 19:16:43;;;;;;;5.40;1.70;;;;;;;1.11;78.21;142543.59;1743423;81;21067;-68
2022/01/14 19:19:14;;;;;;;3.62;1.50;;;;;;;1.11;78.27;142544.84;1751209;81;21047;-66
2022/01/14 19:21:42;;;;;;;5.70;1.90;;;;;;;1.08;78.59;142538.62;1744997;80;21024;-66
2022/01/14 19:24:09;;;;;;;4.65;1.60;;;;;;;1.06;78.76;142532.39;1750815;81;21075;-68
2022/01/14 19:26:36;;;;;;;4.78;1.52;;;;;;;1.05;78.80;142529.94;1746327;81;21040;-67
2022/01/14 19:29:05;;;;;;;6.12;2.65;;;;;;;1.04;78.25;142528.69;1732855;81;21506;-65
2022/01/14 19:31:33;;;;;;;6.37;2.35;;;;;;;1.06;78.30;142533.63;1728730;82;21075;-68
2022/01/14 19:34:01;;;;;;;4.83;1.82;;;;;;;1.03;77.64;142526.17;1715298;83;21150;-66
2022/01/14 19:36:30;;;;;;;5.78;1.70;;;;;;;1.06;77.16;142533.63;1714891;84;21126;-65
2022/01/14 19:38:57;;;;;;;7.25;2.17;;;;;;;1.09;76.75;142539.84;1714719;83;21087;-66
2022/01/14 19:41:24;;;;;;;7.47;1.80;;;;;;;1.13;75.71;142549.81;1666419;85;21056;-66
2022/01/14 19:43:51;;;;;;;5.00;1.62;;;;;;;1.22;75.04;142570.95;1733191;81;21117;-63
2022/01/14 19:46:20;;;;;;;4.60;1.82;;;;;;;1.30;74.43;142592.14;1686812;85;21033;-66
2022/01/14 19:48:50;;;;;;;3.90;1.55;;;;;;;1.38;73.71;142610.80;1723715;81;21047;-65
2022/01/14 19:51:17;;;;;;;5.72;1.90;;;;;;;1.47;73.30;142633.17;1745531;81;21008;-63
2022/01/14 19:53:44;;;;;;;4.78;1.70;;;;;;;1.52;72.92;142645.63;1749589;80;20976;-63
2022/01/14 19:56:11;;;;;;;3.62;1.62;;;;;;;1.58;72.43;142658.06;1752303;81;21121;-63
2022/01/14 19:58:38;;;;;;;4.45;1.50;;;;;;;1.63;71.88;142671.80;1749701;81;21494;-65
2022/01/14 20:01:05;;;;;;;3.37;1.40;;;;;;;1.69;71.38;142686.72;1744928;80;21012;-66
2022/01/14 20:03:33;;;;;;;4.50;1.80;;;;;;;1.72;71.37;142692.94;1748511;81;21073;-65
2022/01/14 20:06:02;;;;;;;6.70;1.92;;;;;;;1.72;71.10;142694.17;1750698;81;21028;-66
2022/01/14 20:08:29;;;;;;;3.45;1.60;;;;;;;1.75;70.98;142700.41;1752755;81;20990;-64
2022/01/14 20:10:56;;;;;;;4.60;1.62;;;;;;;1.77;70.32;142704.16;1749480;81;20992;-65
2022/01/14 20:13:30;;;;;;;4.53;1.55;;;;;;;1.78;70.59;142707.91;1698496;84;21032;-65
2022/01/14 20:15:53;;;;;;;5.87;1.32;;;;;;;1.82;70.42;142716.59;1698230;83;21017;-66
2022/01/14 20:18:20;;;;;;;3.22;1.50;;;;;;;1.85;70.46;142724.06;1743930;82;21091;-64
2022/01/14 20:20:47;;;;;;;9.10;2.00;;;;;;;1.87;70.50;142729.05;1744595;82;20985;-66
2022/01/14 20:23:13;;;;;;;2.90;1.27;;;;;;;1.88;70.43;142732.81;1744708;81;21036;-64
2022/01/14 20:25:40;;;;;;;3.92;1.37;;;;;;;1.88;70.14;142732.81;1744623;81;21024;-64
2022/01/14 20:28:06;;;;;;;5.30;1.62;;;;;;;1.87;70.11;142730.28;1740916;82;21071;-66
2022/01/14 20:30:35;;;;;;;4.58;1.40;;;;;;;1.89;70.17;142735.28;1742751;82;21083;-67
2022/01/14 20:33:01;;;;;;;3.60;1.67;;;;;;;1.89;69.75;142734.03;1744667;81;21076;-65
2022/01/14 20:35:27;;;;;;;2.12;1.25;;;;;;;1.91;69.50;142740.27;1744452;81;21087;-63
2022/01/14 20:37:54;;;;;;;8.38;1.47;;;;;;;1.92;68.92;142741.50;1744663;82;21011;-64
2022/01/14 20:40:20;;;;;;;3.22;1.27;;;;;;;1.92;68.70;142742.73;1744490;82;21060;-66
2022/01/14 20:42:54;;;;;;;4.65;1.50;;;;;;;1.92;68.45;142742.73;1744676;82;21027;-63
2022/01/14 20:45:18;;;;;;;6.12;1.25;;;;;;;1.91;68.27;142740.27;1743361;82;21036;-64
2022/01/14 20:47:49;;;;;;;3.95;1.57;;;;;;;1.90;68.57;142736.50;1744655;82;21016;-66
2022/01/14 20:50:18;;;;;;;6.40;1.70;;;;;;;1.90;68.39;142737.75;1744140;82;21020;-63
2022/01/14 20:52:45;;;;;;;4.40;1.60;;;;;;;2.06;68.45;142776.38;1744241;82;21003;-66
2022/01/14 20:55:13;;;;;;;4.42;1.22;;;;;;;2.07;67.66;142777.63;1744580;81;21072;-62
2022/01/14 20:57:41;;;;;;;4.78;1.55;;;;;;;2.08;67.95;142780.09;1694123;85;21083;-69
2022/01/14 21:00:12;;;;;;;4.05;1.35;;;;;;;2.04;68.14;142770.16;1744211;82;21628;-64
2022/01/14 21:02:41;;;;;;;4.35;1.37;;;;;;;2.28;67.19;142829.91;1694768;85;21032;-61
2022/01/14 21:05:09;;;;;;;3.75;1.52;;;;;;;2.24;67.69;142818.69;1694957;84;21530;-62
2022/01/14 21:07:36;;;;;;;4.35;0.93;;;;;;;2.27;66.59;142827.44;1694361;83;21032;-68
2022/01/14 21:10:05;;;;;;;4.75;1.60;;;;;;;2.19;66.59;142807.52;1681648;85;21115;-69
2022/01/14 21:12:32;;;;;;;3.58;1.32;;;;;;;2.04;66.68;142770.16;1655729;85;21053;-67
2022/01/14 21:14:59;;;;;;;4.25;1.47;;;;;;;1.97;66.86;142752.72;1694774;84;21117;-67
2022/01/14 21:17:25;;;;;;;3.15;1.30;;;;;;;1.90;66.49;142737.75;1677374;83;21020;-67
2022/01/14 21:19:54;;;;;;;5.45;1.32;;;;;;;1.86;66.35;142726.58;1692908;85;21036;-67
2022/01/14 21:22:21;;;;;;;5.50;1.45;;;;;;;1.83;66.65;142720.36;1695071;85;21549;-67
2022/01/14 21:24:48;;;;;;;4.20;1.40;;;;;;;1.80;66.75;142712.84;1694828;85;21071;-68
2022/01/14 21:27:16;;;;;;;5.12;1.50;;;;;;;1.80;66.37;142711.61;1680948;85;21031;-67
2022/01/14 21:29:43;;;;;;;6.15;1.92;;;;;;;1.78;66.50;142706.63;1666920;85;21175;-68
2022/01/14 21:32:10;;;;;;;3.77;1.40;;;;;;;1.76;66.88;142701.69;1667029;85;21067;-68
2022/01/14 21:34:38;;;;;;;5.85;1.30;;;;;;;1.72;66.43;142694.17;1669249;85;21096;-67
2022/01/14 21:37:06;;;;;;;4.53;1.25;;;;;;;1.72;66.61;142692.94;1694595;84;21021;-67
2022/01/14 21:39:33;;;;;;;3.25;1.35;;;;;;;1.72;66.25;142694.17;1694792;84;21036;-68
2022/01/14 21:41:59;;;;;;;4.47;1.50;;;;;;;1.72;66.19;142692.94;1685638;85;21506;-67
2022/01/14 21:44:25;;;;;;;5.17;1.37;;;;;;;1.76;66.16;142701.69;1670131;85;21056;-68
2022/01/14 21:46:52;;;;;;;3.12;1.27;;;;;;;1.78;65.75;142707.91;1694911;85;21032;-68
2022/01/14 21:49:18;;;;;;;5.87;1.70;;;;;;;1.78;65.66;142707.91;1694881;84;21020;-68
2022/01/14 21:51:45;;;;;;;5.33;1.47;;;;;;;1.81;65.94;142715.38;1692403;84;21106;-69
2022/01/14 21:54:11;;;;;;;5.78;1.50;;;;;;;1.82;65.76;142716.59;1666948;85;21055;-69
2022/01/14 21:56:38;;;;;;;4.00;1.90;;;;;;;1.82;65.96;142717.84;1666894;86;21076;-67
2022/01/14 21:59:04;;;;;;;5.55;1.70;;;;;;;1.82;65.99;142717.84;1666900;85;21513;-70
2022/01/14 22:01:31;;;;;;;4.95;1.47;;;;;;;1.85;66.11;142724.06;1666171;85;21064;-68
2022/01/14 22:03:58;;;;;;;6.05;1.35;;;;;;;1.84;66.08;142721.59;1692310;83;21063;-68
2022/01/14 22:06:25;;;;;;;4.10;1.47;;;;;;;1.83;66.21;142720.36;1701776;82;21060;-67
2022/01/14 22:08:54;;;;;;;4.20;1.45;;;;;;;1.83;66.09;142720.36;1746283;81;21032;-68
2022/01/14 22:11:21;;;;;;;4.87;1.40;;;;;;;1.85;66.07;142725.30;1747429;81;20959;-67
2022/01/14 22:13:53;;;;;;;5.62;1.30;;;;;;;1.85;66.02;142724.06;1699886;84;21138;-68
2022/01/14 22:16:18;;;;;;;4.50;1.32;;;;;;;1.83;66.02;142720.36;1700991;84;21656;-67
2022/01/14 22:18:44;;;;;;;6.90;1.20;;;;;;;1.85;66.10;142724.06;1742165;81;21028;-64
2022/01/14 22:21:12;;;;;;;6.47;1.57;;;;;;;1.84;66.06;142721.59;1744010;81;21048;-67
2022/01/14 22:23:40;;;;;;;3.55;1.27;;;;;;;1.85;66.32;142724.06;1744298;82;21474;-67
2022/01/14 22:26:08;;;;;;;4.45;1.30;;;;;;;1.86;66.17;142727.81;1744700;82;21024;-67
2022/01/14 22:28:36;;;;;;;7.12;1.70;;;;;;;1.88;66.19;142732.81;1694468;85;21036;-68
2022/01/14 22:31:03;;;;;;;5.70;1.50;;;;;;;1.90;66.30;142737.75;1744594;82;21141;-67
2022/01/14 22:33:30;;;;;;;4.40;1.57;;;;;;;1.95;66.14;142748.97;1744433;82;21032;-68
2022/01/14 22:36:00;;;;;;;4.97;1.20;;;;;;;1.95;66.07;142750.19;1744753;82;21144;-67
2022/01/14 22:38:26;;;;;;;3.85;1.30;;;;;;;1.97;66.07;142752.72;1744602;82;21035;-67
2022/01/14 22:40:53;;;;;;;8.58;1.45;;;;;;;1.95;66.25;142750.19;1744681;82;21019;-68
2022/01/14 22:43:19;;;;;;;5.85;1.50;;;;;;;1.93;66.57;142743.97;1744382;82;20988;-67
2022/01/14 22:45:50;;;;;;;3.77;1.30;;;;;;;1.86;66.42;142727.81;1744684;81;21001;-67
2022/01/14 22:48:18;;;;;;;6.62;1.40;;;;;;;1.81;66.91;142714.12;1744236;82;20989;-63
2022/01/14 22:50:46;;;;;;;5.60;1.40;;;;;;;1.76;67.37;142702.92;1744266;82;21549;-61
2022/01/14 22:53:13;;;;;;;2.52;1.25;;;;;;;1.75;67.69;142700.41;1736243;82;21083;-61
2022/01/14 22:55:41;;;;;;;5.65;1.70;;;;;;;1.97;67.84;142752.72;1744222;82;21039;-61
2022/01/14 22:58:08;;;;;;;4.75;1.30;;;;;;;1.86;68.13;142727.81;1744131;82;21156;-63
2022/01/14 23:00:38;;;;;;;10.15;1.60;;;;;;;1.76;68.78;142701.69;1690789;84;21056;-65
2022/01/14 23:03:06;;;;;;;6.22;1.50;;;;;;;1.66;69.06;142678.03;1680975;85;21037;-64
2022/01/14 23:05:35;;;;;;;5.30;1.52;;;;;;;1.59;69.39;142661.81;1660661;85;21059;-52
2022/01/14 23:08:02;;;;;;;2.67;1.12;;;;;;;1.63;71.69;142670.52;1681059;85;21530;-64
2022/01/14 23:10:29;;;;;;;5.00;1.40;;;;;;;1.72;69.85;142692.94;1680822;85;21499;-64
2022/01/14 23:12:56;;;;;;;3.90;1.50;;;;;;;1.71;69.82;142690.47;1639775;87;21102;-69
2022/01/14 23:15:23;;;;;;;4.15;1.30;;;;;;;1.65;69.72;142676.73;1649412;87;21071;-71
2022/01/14 23:17:53;;;;;;;5.47;1.32;;;;;;;1.63;69.24;142670.52;1652755;87;21038;-67
2022/01/14 23:20:21;;;;;;;3.55;1.35;;;;;;;1.60;68.92;142664.30;1662513;84;21078;-62
2022/01/14 23:22:50;;;;;;;4.58;1.17;;;;;;;1.62;68.76;142668.05;1679452;85;21079;-61
2022/01/14 23:25:19;;;;;;;6.85;1.40;;;;;;;1.61;67.78;142665.58;1678343;85;21047;-63
2022/01/14 23:27:48;;;;;;;4.03;1.30;;;;;;;1.61;67.87;142666.81;1679928;85;21560;-63
2022/01/14 23:30:17;;;;;;;8.15;1.70;;;;;;;1.64;67.87;142674.27;1679077;85;21066;-63
2022/01/14 23:32:46;;;;;;;2.77;1.30;;;;;;;1.65;67.19;142675.50;1678642;85;21567;-62
2022/01/14 23:35:13;;;;;;;3.67;1.50;;;;;;;1.65;66.65;142676.73;1650485;87;21066;-62
2022/01/14 23:37:41;;;;;;;8.00;1.40;;;;;;;1.65;66.23;142676.73;1650531;87;21043;-63
2022/01/14 23:40:11;;;;;;;3.70;1.47;;;;;;;1.67;66.13;142680.48;1674030;85;21018;-65
2022/01/14 23:42:45;;;;;;;;;;;;;;;1.70;65.94;142687.95;1681804;85;21054;-61
2022/01/14 23:47:44;;;;;;;5.80;1.30;;;;;;;1.71;65.63;142691.70;1679342;85;21061;-63
2022/01/14 23:50:15;;;;;;;4.62;1.50;;;;;;;1.73;65.77;142695.41;1651752;85;21035;-63
2022/01/14 23:52:42;;;;;;;3.73;1.10;;;;;;;1.70;65.63;142687.95;1652435;87;21582;-62
2022/01/14 23:55:18;;;;;;;5.87;1.30;;;;;;;1.68;65.51;142682.97;1676573;85;21196;-64
2022/01/14 23:57:42;;;;;;;4.50;1.42;;;;;;;1.68;65.12;142682.97;1679112;85;21576;-63
